createdAt,value
2023-04-11T00:00:15.037Z,11.502075
2023-04-11T00:01:22.690Z,11.522217
2023-04-11T00:02:32.483Z,11.43158
2023-04-11T00:03:41.269Z,11.371155
2023-04-11T00:04:48.759Z,11.371155
2023-04-11T00:05:58.432Z,11.290588
2023-04-11T00:07:07.135Z,11.330872
2023-04-11T00:08:15.782Z,11.260376
2023-04-11T00:09:25.495Z,11.260376
2023-04-11T00:10:34.248Z,11.260376
2023-04-11T00:11:44.917Z,11.220093
2023-04-11T00:12:53.589Z,11.250305
2023-04-11T00:14:01.298Z,11.230164
2023-04-11T00:15:09.997Z,11.270447
2023-04-11T00:16:17.663Z,11.270447
2023-04-11T00:17:27.308Z,11.230164
2023-04-11T00:18:37.016Z,11.250305
2023-04-11T00:19:46.673Z,11.351013
2023-04-11T00:20:56.346Z,11.320801
2023-04-11T00:22:05.017Z,11.320801
2023-04-11T00:23:13.690Z,11.300659
2023-04-11T00:24:23.336Z,11.320801
2023-04-11T00:25:32.027Z,11.270447
2023-04-11T00:26:40.688Z,11.260376
2023-04-11T00:27:50.356Z,11.300659
2023-04-11T00:28:59.042Z,11.371155
2023-04-11T00:30:08.843Z,11.371155
2023-04-11T00:31:18.409Z,11.401367
2023-04-11T00:32:26.047Z,11.330872
2023-04-11T00:33:34.738Z,11.401367
2023-04-11T00:34:44.368Z,11.401367
2023-04-11T00:35:54.165Z,11.451721
2023-04-11T00:37:03.722Z,11.502075
2023-04-11T00:38:11.377Z,11.522217
2023-04-11T00:39:21.105Z,11.522217
2023-04-11T00:40:30.732Z,11.542358
2023-04-11T00:41:38.385Z,11.552429
2023-04-11T00:42:48.041Z,11.592712
2023-04-11T00:43:56.746Z,11.602783
2023-04-11T00:45:05.398Z,11.663208
2023-04-11T00:46:15.113Z,11.723633
2023-04-11T00:47:22.784Z,11.773987
2023-04-11T00:48:31.375Z,11.804199
2023-04-11T00:49:40.125Z,11.844482
2023-04-11T00:50:47.772Z,11.864624
2023-04-11T00:51:57.439Z,11.965332
2023-04-11T00:53:06.078Z,12.025757
2023-04-11T00:54:15.761Z,12.025757
2023-04-11T00:55:25.501Z,12.086182
2023-04-11T00:56:34.061Z,12.096252
2023-04-11T00:57:42.705Z,12.126465
2023-04-11T00:58:51.386Z,12.176819
2023-04-11T01:00:00.042Z,12.19696
2023-04-11T01:01:09.754Z,12.267456
2023-04-11T01:02:17.434Z,12.237244
2023-04-11T01:03:26.103Z,12.277527
2023-04-11T01:04:35.688Z,12.287598
2023-04-11T01:05:43.353Z,12.348022
2023-04-11T01:06:53.998Z,12.307739
2023-04-11T01:08:03.690Z,12.31781
2023-04-11T01:09:12.355Z,12.388306
2023-04-11T01:10:22.014Z,12.398376
2023-04-11T01:11:30.689Z,12.398376
2023-04-11T01:12:40.303Z,12.428589
2023-04-11T01:13:50.057Z,12.44873
2023-04-11T01:14:59.736Z,12.499084
2023-04-11T01:16:09.427Z,12.489014
2023-04-11T01:17:19.071Z,12.489014
2023-04-11T01:18:26.743Z,12.56958
2023-04-11T01:19:36.425Z,12.599792
2023-04-11T01:20:44.084Z,12.579651
2023-04-11T01:21:52.741Z,12.609863
2023-04-11T01:23:02.392Z,12.650146
2023-04-11T01:24:11.061Z,12.670288
2023-04-11T01:25:20.731Z,12.650146
2023-04-11T01:26:29.387Z,12.650146
2023-04-11T01:27:37.065Z,12.650146
2023-04-11T01:28:45.715Z,12.640076
2023-04-11T01:29:54.387Z,12.670288
2023-04-11T01:31:04.068Z,12.670288
2023-04-11T01:32:13.703Z,12.750854
2023-04-11T01:33:21.355Z,12.720642
2023-04-11T01:34:31.044Z,12.7005
2023-04-11T01:35:39.724Z,12.650146
2023-04-11T01:36:48.398Z,12.7005
2023-04-11T01:37:58.040Z,12.720642
2023-04-11T01:39:06.766Z,12.720642
2023-04-11T01:40:16.420Z,12.750854
2023-04-11T01:41:26.073Z,12.7005
2023-04-11T01:42:35.779Z,12.670288
2023-04-11T01:43:44.467Z,12.650146
2023-04-11T01:44:54.133Z,12.7005
2023-04-11T01:46:01.793Z,12.640076
2023-04-11T01:47:11.456Z,12.670288
2023-04-11T01:48:21.175Z,12.650146
2023-04-11T01:49:28.812Z,12.640076
2023-04-11T01:50:38.460Z,12.640076
2023-04-11T01:51:47.120Z,12.670288
2023-04-11T01:52:56.771Z,12.680359
2023-04-11T01:54:06.437Z,12.650146
2023-04-11T01:55:14.115Z,12.650146
2023-04-11T01:56:23.778Z,12.599792
2023-04-11T01:57:33.445Z,12.529297
2023-04-11T01:58:41.127Z,12.609863
2023-04-11T01:59:50.841Z,12.599792
2023-04-11T02:01:00.483Z,12.539368
2023-04-11T02:02:09.278Z,12.619934
2023-04-11T02:03:18.896Z,12.529297
2023-04-11T02:04:27.578Z,12.529297
2023-04-11T02:05:36.208Z,12.468872
2023-04-11T02:06:45.879Z,12.44873
2023-04-11T02:07:54.520Z,12.489014
2023-04-11T02:09:04.226Z,12.640076
2023-04-11T02:10:12.896Z,12.730713
2023-04-11T02:11:21.548Z,12.791138
2023-04-11T02:12:31.233Z,12.901917
2023-04-11T02:13:39.919Z,12.972412
2023-04-11T02:14:48.573Z,13.032837
2023-04-11T02:15:58.305Z,13.052979
2023-04-11T02:17:06.902Z,13.113403
2023-04-11T02:18:15.566Z,13.183899
2023-04-11T02:19:24.268Z,13.183899
2023-04-11T02:20:31.945Z,13.234253
2023-04-11T02:21:41.626Z,13.224182
2023-04-11T02:22:50.284Z,13.224182
2023-04-11T02:23:59.210Z,13.224182
2023-04-11T02:25:07.640Z,13.254395
2023-04-11T02:26:15.298Z,13.19397
2023-04-11T02:27:24.956Z,13.224182
2023-04-11T02:28:33.629Z,13.19397
2023-04-11T02:29:42.319Z,13.204041
2023-04-11T02:30:52.043Z,13.204041
2023-04-11T02:32:00.760Z,13.365173
2023-04-11T02:33:09.377Z,13.284607
2023-04-11T02:34:19.070Z,13.375244
2023-04-11T02:35:28.751Z,13.435669
2023-04-11T02:36:38.397Z,13.486023
2023-04-11T02:37:48.048Z,13.516235
2023-04-11T02:38:57.722Z,13.526306
2023-04-11T02:40:07.438Z,13.465881
2023-04-11T02:41:15.088Z,13.496094
2023-04-11T02:42:23.768Z,13.465881
2023-04-11T02:43:33.437Z,13.465881
2023-04-11T02:44:41.131Z,13.486023
2023-04-11T02:45:52.419Z,13.465881
2023-04-11T02:47:01.470Z,13.516235
2023-04-11T02:48:10.236Z,13.556519
2023-04-11T02:49:20.966Z,13.536377
2023-04-11T02:50:29.622Z,13.566589
2023-04-11T02:51:38.287Z,13.496094
2023-04-11T02:52:48.024Z,13.536377
2023-04-11T02:53:55.597Z,13.556519
2023-04-11T02:55:05.274Z,13.627014
2023-04-11T02:56:13.927Z,13.677368
2023-04-11T02:57:23.606Z,13.677368
2023-04-11T02:58:33.281Z,13.737793
2023-04-11T02:59:40.981Z,13.69751
2023-04-11T03:00:50.752Z,13.778076
2023-04-11T03:02:00.423Z,13.768005
2023-04-11T03:03:09.147Z,13.717651
2023-04-11T03:04:18.994Z,13.747864
2023-04-11T03:05:28.424Z,13.747864
2023-04-11T03:06:37.077Z,13.707581
2023-04-11T03:07:46.739Z,13.69751
2023-04-11T03:08:55.502Z,13.677368
2023-04-11T03:10:05.121Z,13.596802
2023-04-11T03:11:14.803Z,13.647156
2023-04-11T03:12:23.463Z,13.768005
2023-04-11T03:13:33.131Z,13.808289
2023-04-11T03:14:41.795Z,13.82843
2023-04-11T03:15:49.545Z,13.808289
2023-04-11T03:16:59.141Z,13.868713
2023-04-11T03:18:06.816Z,13.788147
2023-04-11T03:19:14.486Z,13.747864
2023-04-11T03:20:24.301Z,13.82843
2023-04-11T03:21:32.862Z,13.868713
2023-04-11T03:22:42.525Z,13.848572
2023-04-11T03:23:51.185Z,13.737793
2023-04-11T03:24:58.866Z,14.039917
2023-04-11T03:26:08.543Z,14.321899
2023-04-11T03:27:17.209Z,14.402466
2023-04-11T03:28:25.858Z,14.301758
2023-04-11T03:29:35.518Z,14.180908
2023-04-11T03:30:43.192Z,14.170837
2023-04-11T03:31:52.839Z,14.20105
2023-04-11T03:33:01.524Z,14.261475
2023-04-11T03:34:09.173Z,14.291687
2023-04-11T03:35:18.860Z,14.170837
2023-04-11T03:36:27.561Z,14.231262
2023-04-11T03:37:36.179Z,14.321899
2023-04-11T03:38:45.848Z,14.281616
2023-04-11T03:39:54.501Z,14.251404
2023-04-11T03:41:04.182Z,14.20105
2023-04-11T03:42:13.857Z,14.170837
2023-04-11T03:43:22.532Z,14.150696
2023-04-11T03:44:31.203Z,14.150696
2023-04-11T03:45:40.926Z,14.100342
2023-04-11T03:46:49.597Z,14.0802
2023-04-11T03:47:59.291Z,14.100342
2023-04-11T03:49:07.954Z,14.0802
2023-04-11T03:50:17.597Z,13.999634
2023-04-11T03:51:27.499Z,14.039917
2023-04-11T03:52:36.198Z,14.0802
2023-04-11T03:53:45.834Z,13.999634
2023-04-11T03:54:55.489Z,13.999634
2023-04-11T03:56:04.183Z,14.029846
2023-04-11T03:57:13.833Z,13.929138
2023-04-11T03:58:22.501Z,13.898926
2023-04-11T03:59:31.169Z,13.848572
2023-04-11T04:00:41.886Z,13.808289
2023-04-11T04:01:50.539Z,13.717651
2023-04-11T04:02:59.291Z,13.737793
2023-04-11T04:04:08.943Z,13.747864
2023-04-11T04:05:16.542Z,13.788147
2023-04-11T04:06:26.241Z,13.788147
2023-04-11T04:07:34.925Z,13.888855
2023-04-11T04:08:43.625Z,13.868713
2023-04-11T04:09:53.259Z,13.929138
2023-04-11T04:11:02.004Z,13.898926
2023-04-11T04:12:11.671Z,13.919067
2023-04-11T04:13:21.350Z,13.898926
2023-04-11T04:14:29.003Z,13.848572
2023-04-11T04:15:38.668Z,13.848572
2023-04-11T04:16:48.384Z,13.788147
2023-04-11T04:17:56.012Z,13.768005
2023-04-11T04:19:05.679Z,13.707581
2023-04-11T04:20:14.586Z,13.667297
2023-04-11T04:21:24.309Z,13.707581
2023-04-11T04:22:33.958Z,13.788147
2023-04-11T04:23:41.624Z,13.82843
2023-04-11T04:24:51.283Z,13.858643
2023-04-11T04:26:00.946Z,13.808289
2023-04-11T04:27:09.620Z,13.848572
2023-04-11T04:28:19.304Z,13.737793
2023-04-11T04:29:27.950Z,13.677368
2023-04-11T04:30:37.622Z,13.717651
2023-04-11T04:31:47.333Z,13.707581
2023-04-11T04:32:55.976Z,13.747864
2023-04-11T04:34:05.615Z,13.768005
2023-04-11T04:35:14.298Z,13.778076
2023-04-11T04:36:21.989Z,13.788147
2023-04-11T04:37:31.625Z,13.808289
2023-04-11T04:38:39.273Z,13.808289
2023-04-11T04:39:47.934Z,13.778076
2023-04-11T04:40:57.689Z,13.808289
2023-04-11T04:42:06.351Z,13.848572
2023-04-11T04:43:16.019Z,13.858643
2023-04-11T04:44:24.673Z,13.848572
2023-04-11T04:45:33.344Z,13.778076
2023-04-11T04:46:43.031Z,13.747864
2023-04-11T04:47:51.739Z,13.627014
2023-04-11T04:49:02.151Z,13.667297
2023-04-11T04:50:10.071Z,13.667297
2023-04-11T04:51:17.765Z,13.526306
2023-04-11T04:52:27.439Z,13.415527
2023-04-11T04:53:37.075Z,13.334961
2023-04-11T04:54:46.744Z,13.304749
2023-04-11T04:55:56.383Z,13.224182
2023-04-11T04:57:05.081Z,13.234253
2023-04-11T04:58:14.689Z,13.365173
2023-04-11T04:59:24.370Z,13.405457
2023-04-11T05:00:33.005Z,13.465881
2023-04-11T05:01:43.178Z,13.536377
2023-04-11T05:02:51.795Z,13.536377
2023-04-11T05:04:00.980Z,13.556519
2023-04-11T05:05:09.963Z,13.586731
2023-04-11T05:06:19.415Z,13.667297
2023-04-11T05:07:27.263Z,13.808289
2023-04-11T05:08:36.937Z,13.919067
2023-04-11T05:09:45.593Z,14.029846
2023-04-11T05:10:55.311Z,14.120483
2023-04-11T05:12:05.574Z,14.140625
2023-04-11T05:13:12.738Z,14.170837
2023-04-11T05:14:21.358Z,14.150696
2023-04-11T05:15:30.023Z,14.20105
2023-04-11T05:16:38.707Z,14.281616
2023-04-11T05:17:48.419Z,14.291687
2023-04-11T05:18:56.059Z,14.231262
2023-04-11T05:20:05.716Z,14.251404
2023-04-11T05:21:14.377Z,14.261475
2023-04-11T05:22:23.027Z,14.170837
2023-04-11T05:23:32.700Z,14.029846
2023-04-11T05:24:41.337Z,13.868713
2023-04-11T05:25:50.982Z,13.737793
2023-04-11T05:27:00.703Z,13.647156
2023-04-11T05:28:09.398Z,13.465881
2023-04-11T05:29:19.072Z,13.284607
2023-04-11T05:30:28.723Z,13.153687
2023-04-11T05:31:37.367Z,12.972412
2023-04-11T05:32:47.074Z,12.871704
2023-04-11T05:33:55.907Z,12.901917
2023-04-11T05:35:05.361Z,12.82135
2023-04-11T05:36:15.036Z,12.871704
2023-04-11T05:37:23.709Z,12.982483
2023-04-11T05:38:32.366Z,13.002625
2023-04-11T05:39:42.042Z,13.083191
2023-04-11T05:40:50.687Z,13.123474
2023-04-11T05:42:00.360Z,13.204041
2023-04-11T05:43:10.040Z,13.204041
2023-04-11T05:44:18.697Z,13.274536
2023-04-11T05:45:28.398Z,13.334961
2023-04-11T05:46:38.126Z,13.365173
2023-04-11T05:47:45.762Z,13.405457
2023-04-11T05:48:55.392Z,13.496094
2023-04-11T05:50:04.053Z,13.516235
2023-04-11T05:51:12.714Z,13.486023
2023-04-11T05:52:22.431Z,13.536377
2023-04-11T05:53:30.080Z,13.596802
2023-04-11T05:54:39.737Z,13.596802
2023-04-11T05:55:49.404Z,13.566589
2023-04-11T05:56:57.079Z,13.596802
2023-04-11T05:58:06.794Z,13.586731
2023-04-11T05:59:14.450Z,13.415527
2023-04-11T06:00:24.086Z,13.415527
2023-04-11T06:01:33.784Z,13.365173
2023-04-11T06:02:41.552Z,13.314819
2023-04-11T06:03:51.200Z,13.274536
2023-04-11T06:04:59.776Z,13.163757
2023-04-11T06:06:08.432Z,13.133545
2023-04-11T06:07:17.198Z,13.113403
2023-04-11T06:08:25.846Z,13.123474
2023-04-11T06:09:34.519Z,13.133545
2023-04-11T06:10:44.186Z,13.133545
2023-04-11T06:11:52.846Z,13.153687
2023-04-11T06:13:02.541Z,13.163757
2023-04-11T06:14:12.229Z,13.093262
2023-04-11T06:15:20.893Z,13.032837
2023-04-11T06:16:30.599Z,13.012695
2023-04-11T06:17:39.288Z,13.042908
2023-04-11T06:18:47.877Z,13.093262
2023-04-11T06:19:57.534Z,13.113403
2023-04-11T06:21:07.176Z,13.153687
2023-04-11T06:22:16.833Z,13.042908
2023-04-11T06:23:25.524Z,13.012695
2023-04-11T06:24:34.199Z,13.032837
2023-04-11T06:25:43.865Z,13.093262
2023-04-11T06:26:52.528Z,13.123474
2023-04-11T06:28:02.245Z,13.183899
2023-04-11T06:29:11.880Z,13.183899
2023-04-11T06:30:20.529Z,13.093262
2023-04-11T06:31:30.216Z,13.042908
2023-04-11T06:32:38.931Z,13.093262
2023-04-11T06:33:47.588Z,13.163757
2023-04-11T06:34:57.225Z,13.113403
2023-04-11T06:36:06.119Z,13.052979
2023-04-11T06:37:13.541Z,13.052979
2023-04-11T06:38:23.228Z,13.052979
2023-04-11T06:39:31.916Z,13.042908
2023-04-11T06:40:41.654Z,13.042908
2023-04-11T06:41:50.620Z,13.032837
2023-04-11T06:42:59.306Z,13.002625
2023-04-11T06:44:08.990Z,12.9422
2023-04-11T06:45:16.619Z,12.911987
2023-04-11T06:46:25.286Z,12.801208
2023-04-11T06:47:34.979Z,12.7005
2023-04-11T06:48:43.625Z,12.619934
2023-04-11T06:49:53.305Z,12.579651
2023-04-11T06:51:02.959Z,12.56958
2023-04-11T06:52:11.624Z,12.539368
2023-04-11T06:53:20.320Z,12.489014
2023-04-11T06:54:28.986Z,12.398376
2023-04-11T06:55:38.648Z,12.468872
2023-04-11T06:56:48.311Z,12.307739
2023-04-11T06:57:56.992Z,12.126465
2023-04-11T06:59:06.661Z,11.965332
2023-04-11T07:00:15.314Z,11.884766
2023-04-11T07:01:23.027Z,11.733704
2023-04-11T07:02:32.692Z,11.653137
2023-04-11T07:03:40.475Z,11.602783
2023-04-11T07:04:48.956Z,11.522217
2023-04-11T07:05:58.648Z,11.542358
2023-04-11T07:07:06.279Z,11.481934
2023-04-11T07:08:14.981Z,11.401367
2023-04-11T07:09:23.623Z,11.330872
2023-04-11T07:10:31.286Z,11.330872
2023-04-11T07:11:40.947Z,11.270447
2023-04-11T07:12:50.627Z,11.270447
2023-04-11T07:13:59.304Z,11.351013
2023-04-11T07:15:08.973Z,11.270447
2023-04-11T07:16:17.648Z,11.18988
2023-04-11T07:17:27.432Z,11.119385
2023-04-11T07:18:36.009Z,11.048889
2023-04-11T07:19:43.664Z,11.069031
2023-04-11T07:20:53.346Z,11.069031
2023-04-11T07:22:03.159Z,11.038818
2023-04-11T07:23:12.720Z,10.958252
2023-04-11T07:24:23.415Z,10.93811
2023-04-11T07:25:32.139Z,10.887756
2023-04-11T07:26:41.852Z,10.787048
2023-04-11T07:27:50.530Z,10.746765
2023-04-11T07:28:59.208Z,10.706482
2023-04-11T07:30:09.866Z,10.67627
2023-04-11T07:31:18.537Z,10.746765
2023-04-11T07:32:28.264Z,10.68634
2023-04-11T07:33:37.935Z,10.736694
2023-04-11T07:34:47.591Z,10.756836
2023-04-11T07:35:55.277Z,10.666199
2023-04-11T07:37:05.071Z,10.666199
2023-04-11T07:38:14.702Z,10.736694
2023-04-11T07:39:23.366Z,10.68634
2023-04-11T07:40:33.020Z,10.666199
2023-04-11T07:41:42.677Z,10.605774
2023-04-11T07:42:52.336Z,10.565491
2023-04-11T07:44:02.065Z,10.585632
2023-04-11T07:45:09.679Z,10.635986
2023-04-11T07:46:19.343Z,10.635986
2023-04-11T07:47:27.055Z,10.625916
2023-04-11T07:48:36.671Z,10.605774
2023-04-11T07:49:46.344Z,10.132446
2023-04-11T07:50:55.997Z,10.092163
2023-04-11T07:52:05.662Z,10.072021
2023-04-11T07:53:15.334Z,9.971313
2023-04-11T07:54:22.997Z,9.941101
2023-04-11T07:55:32.674Z,9.840393
2023-04-11T07:56:40.335Z,9.820251
2023-04-11T07:57:49.012Z,9.790039
2023-04-11T07:58:57.714Z,9.840393
2023-04-11T08:00:05.362Z,9.890747
2023-04-11T08:01:15.016Z,9.830322
2023-04-11T08:02:24.795Z,9.759827
2023-04-11T08:03:33.462Z,9.790039
2023-04-11T08:04:43.095Z,9.860535
2023-04-11T08:05:50.666Z,9.890747
2023-04-11T08:07:00.324Z,9.860535
2023-04-11T08:08:09.979Z,9.759827
2023-04-11T08:09:18.676Z,9.739685
2023-04-11T08:10:28.314Z,9.759827
2023-04-11T08:11:36.981Z,9.759827
2023-04-11T08:12:44.644Z,9.67926
2023-04-11T08:13:54.472Z,9.689331
2023-04-11T08:15:01.972Z,9.689331
2023-04-11T08:16:11.716Z,9.790039
2023-04-11T08:17:27.996Z,9.830322
2023-04-11T08:18:30.956Z,9.840393
2023-04-11T08:19:40.622Z,9.840393
2023-04-11T08:20:49.319Z,9.80011
2023-04-11T08:21:56.975Z,9.729614
2023-04-11T08:23:06.010Z,9.739685
2023-04-11T08:24:14.310Z,9.729614
2023-04-11T08:25:23.985Z,9.759827
2023-04-11T08:26:33.615Z,9.719543
2023-04-11T08:27:42.267Z,9.729614
2023-04-11T08:28:51.127Z,9.638977
2023-04-11T08:29:59.595Z,9.618835
2023-04-11T08:31:08.264Z,9.387207
2023-04-11T08:32:16.894Z,9.306641
2023-04-11T08:33:25.620Z,9.246216
2023-04-11T08:34:35.386Z,9.226074
2023-04-11T08:35:44.044Z,9.226074
2023-04-11T08:36:53.687Z,9.256287
2023-04-11T08:38:02.347Z,9.226074
2023-04-11T08:39:11.024Z,9.246216
2023-04-11T08:40:20.705Z,9.306641
2023-04-11T08:41:29.393Z,9.336853
2023-04-11T08:42:38.044Z,9.216003
2023-04-11T08:43:47.721Z,9.316711
2023-04-11T08:44:56.382Z,9.306641
2023-04-11T08:46:06.101Z,9.336853
2023-04-11T08:47:15.725Z,9.538269
2023-04-11T08:48:24.408Z,9.608765
2023-04-11T08:49:34.136Z,9.578552
2023-04-11T08:50:41.792Z,9.558411
2023-04-11T08:51:50.442Z,9.608765
2023-04-11T08:52:59.133Z,9.67926
2023-04-11T08:54:07.941Z,9.638977
2023-04-11T08:55:17.613Z,9.618835
2023-04-11T08:56:26.279Z,9.67926
2023-04-11T08:57:35.063Z,9.67926
2023-04-11T08:58:44.618Z,9.759827
2023-04-11T08:59:53.285Z,9.769897
2023-04-11T09:01:02.946Z,9.769897
2023-04-11T09:02:12.711Z,9.769897
2023-04-11T09:03:22.375Z,9.820251
2023-04-11T09:04:31.949Z,9.790039
2023-04-11T09:05:40.636Z,9.80011
2023-04-11T09:06:48.288Z,9.759827
2023-04-11T09:07:59.001Z,9.769897
2023-04-11T09:09:06.703Z,9.759827
2023-04-11T09:10:16.371Z,9.739685
2023-04-11T09:11:26.032Z,9.739685
2023-04-11T09:12:33.721Z,9.729614
2023-04-11T09:13:43.571Z,9.649048
2023-04-11T09:14:53.105Z,9.638977
2023-04-11T09:16:00.759Z,9.588623
2023-04-11T09:17:10.394Z,9.538269
2023-04-11T09:18:19.048Z,9.538269
2023-04-11T09:19:27.741Z,9.497986
2023-04-11T09:20:37.391Z,9.538269
2023-04-11T09:21:47.164Z,9.558411
2023-04-11T09:22:56.808Z,9.618835
2023-04-11T09:24:05.508Z,9.67926
2023-04-11T09:25:14.162Z,9.689331
2023-04-11T09:26:24.202Z,9.608765
2023-04-11T09:27:31.484Z,9.659119
2023-04-11T09:28:41.137Z,9.689331
2023-04-11T09:29:50.855Z,9.638977
2023-04-11T09:30:59.477Z,9.618835
2023-04-11T09:32:07.148Z,9.618835
2023-04-11T09:33:16.820Z,9.618835
2023-04-11T09:34:25.492Z,9.618835
2023-04-11T09:35:34.170Z,9.659119
2023-04-11T09:36:43.829Z,9.719543
2023-04-11T09:37:51.479Z,9.769897
2023-04-11T09:39:01.175Z,9.759827
2023-04-11T09:40:10.859Z,9.769897
2023-04-11T09:41:18.564Z,9.759827
2023-04-11T09:42:28.268Z,9.769897
2023-04-11T09:43:36.960Z,9.719543
2023-04-11T09:44:46.660Z,9.790039
2023-04-11T09:45:56.355Z,9.759827
2023-04-11T09:47:06.023Z,9.729614
2023-04-11T09:48:15.656Z,9.719543
2023-04-11T09:49:26.321Z,9.820251
2023-04-11T09:50:34.993Z,9.890747
2023-04-11T09:51:44.675Z,10.011597
2023-04-11T09:52:53.344Z,10.021667
2023-04-11T09:54:02.023Z,10.041809
2023-04-11T09:55:11.687Z,9.981384
2023-04-11T09:56:19.332Z,9.981384
2023-04-11T09:57:27.981Z,9.910889
2023-04-11T09:58:36.646Z,9.890747
2023-04-11T09:59:45.344Z,9.870605
2023-04-11T10:00:55.009Z,9.860535
2023-04-11T10:02:02.737Z,9.820251
2023-04-11T10:03:12.363Z,9.830322
2023-04-11T10:04:22.086Z,9.920959
2023-04-11T10:05:29.751Z,9.951172
2023-04-11T10:06:39.416Z,9.981384
2023-04-11T10:07:48.073Z,10.041809
2023-04-11T10:08:55.990Z,10.122375
2023-04-11T10:10:05.435Z,10.192871
2023-04-11T10:11:15.084Z,10.223083
2023-04-11T10:12:24.749Z,10.132446
2023-04-11T10:13:34.443Z,10.041809
2023-04-11T10:14:43.114Z,9.991455
2023-04-11T10:15:52.779Z,10.021667
2023-04-11T10:17:01.459Z,10.072021
2023-04-11T10:18:10.254Z,10.05188
2023-04-11T10:19:19.861Z,10.041809
2023-04-11T10:20:27.531Z,9.971313
2023-04-11T10:21:36.174Z,9.971313
2023-04-11T10:22:45.829Z,10.072021
2023-04-11T10:23:55.662Z,10.072021
2023-04-11T10:25:05.188Z,9.991455
2023-04-11T10:26:13.842Z,9.890747
2023-04-11T10:27:21.495Z,9.80011
2023-04-11T10:28:31.177Z,9.759827
2023-04-11T10:29:39.878Z,9.790039
2023-04-11T10:30:48.515Z,9.769897
2023-04-11T10:31:58.277Z,9.830322
2023-04-11T10:33:06.921Z,9.870605
2023-04-11T10:34:16.720Z,9.981384
2023-04-11T10:35:26.263Z,9.981384
2023-04-11T10:36:34.947Z,9.971313
2023-04-11T10:37:44.611Z,9.971313
2023-04-11T10:38:53.269Z,9.971313
2023-04-11T10:40:02.000Z,9.941101
2023-04-11T10:41:11.667Z,10.011597
2023-04-11T10:42:20.332Z,9.991455
2023-04-11T10:43:30.008Z,10.05188
2023-04-11T10:44:40.682Z,10.102234
2023-04-11T10:45:49.352Z,10.122375
2023-04-11T10:46:59.028Z,10.253296
2023-04-11T10:48:07.911Z,10.172729
2023-04-11T10:49:17.389Z,10.132446
2023-04-11T10:50:27.075Z,10.172729
2023-04-11T10:51:35.697Z,10.263367
2023-04-11T10:52:45.355Z,10.414429
2023-04-11T10:53:54.030Z,10.585632
2023-04-11T10:55:03.724Z,10.756836
2023-04-11T10:56:13.606Z,10.867615
2023-04-11T10:57:22.032Z,10.887756
2023-04-11T10:58:30.704Z,10.857544
2023-04-11T10:59:40.385Z,10.776978
2023-04-11T11:00:48.096Z,10.716553
2023-04-11T11:01:57.777Z,10.464783
2023-04-11T11:03:06.479Z,10.4245
2023-04-11T11:04:16.192Z,10.4245
2023-04-11T11:05:25.768Z,10.192871
2023-04-11T11:06:34.724Z,10.05188
2023-04-11T11:07:43.076Z,9.920959
2023-04-11T11:08:52.717Z,9.860535
2023-04-11T11:10:01.412Z,9.860535
2023-04-11T11:11:11.086Z,9.870605
2023-04-11T11:12:20.769Z,9.840393
2023-04-11T11:13:28.428Z,9.759827
2023-04-11T11:14:38.124Z,9.820251
2023-04-11T11:15:47.788Z,9.991455
2023-04-11T11:16:56.492Z,10.202942
2023-04-11T11:18:06.148Z,10.354004
2023-04-11T11:19:13.842Z,10.716553
2023-04-11T11:20:23.525Z,10.958252
2023-04-11T11:21:32.219Z,10.897827
2023-04-11T11:22:39.945Z,11.169739
2023-04-11T11:23:49.596Z,11.361084
2023-04-11T11:24:57.298Z,11.572571
2023-04-11T11:26:06.961Z,11.864624
2023-04-11T11:27:16.648Z,12.096252
2023-04-11T11:28:24.334Z,11.874695
2023-04-11T11:29:32.003Z,11.904907
2023-04-11T11:30:41.698Z,11.723633
2023-04-11T11:31:49.390Z,11.632996
2023-04-11T11:32:59.071Z,11.653137
2023-04-11T11:34:22.619Z,11.471863
2023-04-11T11:35:19.433Z,11.361084
2023-04-11T11:36:29.113Z,11.43158
2023-04-11T11:37:37.787Z,11.401367
2023-04-11T11:38:46.509Z,11.552429
2023-04-11T11:39:56.193Z,11.703491
2023-04-11T11:41:03.904Z,11.632996
2023-04-11T11:42:13.566Z,11.572571
2023-04-11T11:43:23.242Z,11.512146
2023-04-11T11:44:30.903Z,11.320801
2023-04-11T11:45:40.665Z,11.361084
2023-04-11T11:46:49.317Z,11.411438
2023-04-11T11:47:58.992Z,11.522217
2023-04-11T11:49:08.676Z,11.572571
2023-04-11T11:50:16.362Z,11.592712
2023-04-11T11:51:26.034Z,11.542358
2023-04-11T11:52:35.715Z,11.411438
2023-04-11T11:53:44.386Z,11.320801
2023-04-11T11:54:54.068Z,11.361084
2023-04-11T11:56:03.733Z,11.481934
2023-04-11T11:57:12.386Z,11.834412
2023-04-11T11:58:22.058Z,11.733704
2023-04-11T11:59:31.746Z,11.622925
2023-04-11T12:00:40.434Z,11.502075
2023-04-11T12:01:50.164Z,11.43158
2023-04-11T12:02:58.938Z,11.451721
2023-04-11T12:04:08.825Z,11.502075
2023-04-11T12:05:17.315Z,11.481934
2023-04-11T12:06:24.971Z,11.723633
2023-04-11T12:07:33.648Z,11.914978
2023-04-11T12:08:41.305Z,12.247314
2023-04-11T12:09:50.008Z,12.791138
2023-04-11T12:10:59.754Z,12.952271
2023-04-11T12:12:09.384Z,12.801208
2023-04-11T12:13:19.052Z,12.529297
2023-04-11T12:14:27.713Z,12.609863
2023-04-11T12:15:36.452Z,12.549438
2023-04-11T12:16:46.094Z,12.720642
2023-04-11T12:17:53.856Z,12.7005
2023-04-11T12:19:03.464Z,12.791138
2023-04-11T12:20:13.132Z,13.224182
2023-04-11T12:21:21.798Z,13.385315
2023-04-11T12:22:31.465Z,14.20105
2023-04-11T12:23:41.167Z,14.785156
2023-04-11T12:24:50.860Z,15.469971
2023-04-11T12:26:00.572Z,15.923157
2023-04-11T12:27:10.799Z,15.943298
2023-04-11T12:28:18.893Z,15.681458
2023-04-11T12:29:28.582Z,15.349121
2023-04-11T12:30:36.250Z,14.734802
2023-04-11T12:31:46.090Z,14.049988
2023-04-11T12:32:54.627Z,14.110413
2023-04-11T12:34:02.238Z,14.100342
2023-04-11T12:35:11.896Z,13.868713
2023-04-11T12:36:20.561Z,13.737793
2023-04-11T12:37:30.249Z,14.372253
2023-04-11T12:38:39.915Z,15.107422
2023-04-11T12:39:47.605Z,14.785156
2023-04-11T12:41:14.212Z,14.432678
2023-04-11T12:42:08.994Z,14.140625
2023-04-11T12:43:19.026Z,14.432678
2023-04-11T12:44:28.593Z,14.966431
2023-04-11T12:45:36.257Z,14.634094
2023-04-11T12:46:44.997Z,14.45282
2023-04-11T12:47:55.021Z,14.321899
2023-04-11T12:49:03.650Z,14.966431
2023-04-11T12:50:13.337Z,14.845581
2023-04-11T12:51:21.990Z,14.543457
2023-04-11T12:52:29.643Z,14.150696
2023-04-11T12:53:39.315Z,13.898926
2023-04-11T12:54:46.964Z,13.667297
2023-04-11T12:55:56.746Z,13.455811
2023-04-11T12:57:06.379Z,13.486023
2023-04-11T12:58:15.050Z,13.314819
2023-04-11T12:59:24.758Z,13.19397
2023-04-11T13:00:34.378Z,13.204041
2023-04-11T13:01:42.101Z,13.19397
2023-04-11T13:02:51.789Z,13.284607
2023-04-11T13:04:00.558Z,13.526306
2023-04-11T13:05:09.077Z,13.858643
2023-04-11T13:06:18.760Z,14.0802
2023-04-11T13:07:27.421Z,13.556519
2023-04-11T13:08:37.068Z,13.284607
2023-04-11T13:09:46.756Z,13.365173
2023-04-11T13:10:55.953Z,13.647156
2023-04-11T13:12:05.102Z,13.778076
2023-04-11T13:13:18.221Z,13.82843
2023-04-11T13:14:22.419Z,13.647156